Time;durP1;ratioP1;P1;durP2;ratioP2;P2;SDS_P1;SDS_P2;PMS_P1;PMS_P2;Temp;Humidity;BMP_temperature;BMP_pressure;BME280_temperature;BME280_humidity;BME280_pressure;Samples;Min_cycle;Max_cycle;Signal;HPM_P1;HPM_P2
2022/03/10 00:01:22;;;;;;;36.90;17.15;;;;;;;2.44;58.76;103044.53;4938146;28;20082;-47
2022/03/10 00:03:47;;;;;;;37.10;17.58;;;;;;;2.43;58.90;103032.28;4940990;28;20035;-47
2022/03/10 00:06:13;;;;;;;40.38;17.88;;;;;;;2.40;58.39;103033.41;4939581;28;20031;-46
2022/03/10 00:08:39;;;;;;;39.08;17.20;;;;;;;2.40;58.80;103043.16;4940213;28;21011;-46
2022/03/10 00:11:04;;;;;;;39.65;17.67;;;;;;;2.38;58.88;103045.94;4936760;28;20066;-46
2022/03/10 00:13:31;;;;;;;44.10;18.02;;;;;;;2.36;58.67;103047.06;4939776;28;20473;-46
2022/03/10 00:15:59;;;;;;;40.15;17.88;;;;;;;2.27;58.77;103047.88;4939234;28;20022;-46
2022/03/10 00:18:25;;;;;;;34.47;15.05;;;;;;;2.26;58.55;103056.78;4936807;28;20023;-46
2022/03/10 00:20:50;;;;;;;39.40;17.88;;;;;;;2.24;58.67;103058.72;4940310;28;20031;-46
2022/03/10 00:23:16;;;;;;;37.22;17.35;;;;;;;2.23;58.62;103067.63;4939480;28;20398;-46
2022/03/10 00:25:42;;;;;;;39.28;17.15;;;;;;;2.22;58.63;103065.97;4936135;28;20103;-48
2022/03/10 00:28:07;;;;;;;39.33;17.30;;;;;;;2.21;58.49;103074.88;4940609;28;20042;-46
2022/03/10 00:30:33;;;;;;;43.22;19.27;;;;;;;2.18;58.37;103064.56;4941537;28;20165;-46
2022/03/10 00:32:58;;;;;;;40.05;18.08;;;;;;;2.16;58.37;103071.81;4938711;28;20035;-47
2022/03/10 00:35:25;;;;;;;38.67;17.73;;;;;;;2.12;58.54;103073.88;4940425;28;20602;-46
2022/03/10 00:37:52;;;;;;;38.22;16.95;;;;;;;2.11;58.41;103069.53;4937915;28;20595;-47
2022/03/10 00:40:19;;;;;;;38.92;18.02;;;;;;;2.08;58.69;103077.75;4937924;28;20154;-49
2022/03/10 00:42:45;;;;;;;40.90;18.58;;;;;;;2.03;58.27;103067.59;4937189;28;20038;-46
2022/03/10 00:45:12;;;;;;;39.72;17.27;;;;;;;2.02;58.44;103078.31;4940417;28;20700;-48
2022/03/10 00:47:38;;;;;;;36.92;16.63;;;;;;;2.00;58.33;103080.25;4939462;28;20034;-47
2022/03/10 00:50:05;;;;;;;36.33;16.33;;;;;;;1.99;58.41;103086.50;4941434;28;20493;-48
2022/03/10 00:52:30;;;;;;;35.60;16.75;;;;;;;1.96;58.58;103089.41;4935906;28;20046;-46
2022/03/10 00:54:56;;;;;;;37.85;17.38;;;;;;;1.93;58.35;103085.22;4942908;28;20031;-47
2022/03/10 00:57:21;;;;;;;36.63;15.55;;;;;;;1.90;58.59;103082.84;4941846;28;20401;-49
2022/03/10 00:59:47;;;;;;;43.55;17.40;;;;;;;1.86;58.52;103083.25;4945296;28;20446;-49
2022/03/10 01:02:13;;;;;;;39.05;17.40;;;;;;;1.83;58.64;103083.53;4947539;28;20618;-47
2022/03/10 01:04:39;;;;;;;36.80;16.40;;;;;;;1.80;58.71;103089.94;4945225;28;20102;-46
2022/03/10 01:07:04;;;;;;;42.13;18.00;;;;;;;1.76;58.73;103088.50;4943846;28;20042;-49
2022/03/10 01:09:30;;;;;;;39.65;16.65;;;;;;;1.74;58.42;103079.88;4938277;28;20126;-46
2022/03/10 01:11:55;;;;;;;42.22;16.33;;;;;;;1.70;58.53;103084.59;4950933;28;20039;-46
2022/03/10 01:14:21;;;;;;;36.30;17.05;;;;;;;1.68;58.56;103083.88;4943136;28;20035;-47
2022/03/10 01:16:46;;;;;;;36.05;16.95;;;;;;;1.66;58.25;103085.00;4944114;28;20252;-47
2022/03/10 01:19:12;;;;;;;36.85;17.05;;;;;;;1.64;58.10;103084.28;4942861;28;20050;-46
2022/03/10 01:21:37;;;;;;;42.97;17.70;;;;;;;1.61;58.67;103085.38;4946175;28;20043;-46
2022/03/10 01:24:03;;;;;;;41.75;17.73;;;;;;;1.57;58.54;103083.13;4941522;28;20042;-46
2022/03/10 01:26:29;;;;;;;38.47;18.02;;;;;;;1.54;58.76;103078.94;4946144;28;20030;-48
2022/03/10 01:28:54;;;;;;;39.22;16.27;;;;;;;1.52;58.43;103087.00;4942474;28;20106;-47
2022/03/10 01:31:20;;;;;;;36.22;18.02;;;;;;;1.51;58.84;103085.34;4943023;28;20039;-50
2022/03/10 01:33:45;;;;;;;36.45;17.58;;;;;;;1.48;58.45;103093.53;4940801;28;20046;-47
2022/03/10 01:36:11;;;;;;;40.50;16.42;;;;;;;1.46;58.32;103089.34;4943899;28;20038;-47
2022/03/10 01:38:42;;;;;;;38.33;17.30;;;;;;;1.43;58.48;103089.59;4939250;28;20027;-46
2022/03/10 01:41:08;;;;;;;38.65;17.60;;;;;;;1.41;58.76;103091.53;4946135;28;20027;-47
2022/03/10 01:43:57;;;;;;;41.08;16.55;;;;;;;1.32;58.83;103093.16;4936449;28;20433;-48
2022/03/10 01:46:23;;;;;;;42.20;17.20;;;;;;;1.36;58.60;103091.91;4938725;28;20039;-48
2022/03/10 01:48:49;;;;;;;34.55;16.85;;;;;;;1.34;58.89;103099.13;4942043;28;20492;-47
2022/03/10 01:51:15;;;;;;;41.75;16.85;;;;;;;1.32;58.91;103097.59;4939427;28;20027;-47
2022/03/10 01:53:42;;;;;;;39.90;17.73;;;;;;;1.29;58.55;103109.25;4944767;28;20066;-47
2022/03/10 01:56:09;;;;;;;39.42;16.98;;;;;;;1.27;58.70;103100.63;4944639;28;20019;-47
2022/03/10 01:58:36;;;;;;;38.45;18.10;;;;;;;1.25;58.47;103112.28;4945364;28;20702;-46
2022/03/10 02:01:02;;;;;;;38.15;17.02;;;;;;;1.11;59.16;103103.72;4950151;28;20042;-48
2022/03/10 02:03:28;;;;;;;46.45;18.70;;;;;;;0.95;60.20;103105.97;4943263;28;20482;-48
2022/03/10 02:05:54;;;;;;;43.10;17.85;;;;;;;0.77;60.39;103116.22;4951047;28;20038;-49
2022/03/10 02:11:05;;;;;;;;;;;;;;;0.68;60.72;103116.13;4949214;28;20038;-46
2022/03/10 02:13:30;;;;;;;35.97;16.20;;;;;;;0.83;60.36;103109.59;4940482;28;19914;-47
2022/03/10 02:18:40;;;;;;;37.40;17.88;;;;;;;0.89;59.82;103114.38;4939069;28;20042;-47
2022/03/10 02:21:05;;;;;;;42.03;18.58;;;;;;;0.88;59.18;103110.88;4939235;28;20036;-48
2022/03/10 02:23:31;;;;;;;40.80;17.52;;;;;;;0.88;59.42;103105.63;4940097;28;20418;-47
2022/03/10 02:26:00;;;;;;;41.38;18.67;;;;;;;0.87;59.31;103109.22;4937923;28;20052;-47
2022/03/10 02:28:26;;;;;;;37.35;18.02;;;;;;;0.87;59.31;103111.84;4941447;28;20075;-46
2022/03/10 02:30:53;;;;;;;39.03;18.10;;;;;;;0.85;59.77;103121.72;4941470;28;20030;-47
2022/03/10 02:33:19;;;;;;;41.45;19.50;;;;;;;0.83;59.47;103118.34;4944207;28;20279;-49
2022/03/10 02:35:45;;;;;;;39.80;18.05;;;;;;;0.81;59.41;103111.53;4943906;28;20049;-49
2022/03/10 02:38:17;;;;;;;36.30;17.00;;;;;;;0.79;59.52;103116.09;4939836;28;20027;-46
2022/03/10 02:40:44;;;;;;;43.28;19.77;;;;;;;0.78;59.11;103131.09;4944886;28;20070;-46
2022/03/10 02:43:10;;;;;;;42.15;18.55;;;;;;;0.62;60.31;103133.31;4932491;28;20039;-46
2022/03/10 02:45:36;;;;;;;40.28;18.65;;;;;;;0.43;60.96;103136.59;4945628;28;20038;-47
2022/03/10 02:48:02;;;;;;;47.95;22.08;;;;;;;0.23;62.44;103138.19;4936752;28;20023;-47
2022/03/10 02:50:28;;;;;;;42.70;20.48;;;;;;;0.08;62.42;103142.03;4939683;28;20027;-46
2022/03/10 02:52:53;;;;;;;39.70;19.33;;;;;;;0.12;62.45;103148.72;4935674;28;20782;-47
2022/03/10 02:55:19;;;;;;;37.75;17.10;;;;;;;0.19;61.96;103142.03;4943796;28;20118;-48
2022/03/10 02:57:45;;;;;;;41.67;19.00;;;;;;;0.26;61.55;103150.28;4940389;28;20033;-48
2022/03/10 03:00:10;;;;;;;41.47;18.40;;;;;;;0.31;61.54;103148.13;4945226;28;20090;-47
2022/03/10 03:02:38;;;;;;;36.95;17.02;;;;;;;0.35;60.79;103154.81;4933991;28;20466;-47
2022/03/10 03:05:04;;;;;;;38.45;19.45;;;;;;;0.37;60.84;103146.81;4942291;28;20031;-47
2022/03/10 03:07:30;;;;;;;40.88;17.90;;;;;;;0.38;60.90;103159.03;4933180;28;20019;-49
2022/03/10 03:09:55;;;;;;;39.38;17.85;;;;;;;0.38;60.81;103167.78;4938992;28;20027;-48
2022/03/10 03:12:21;;;;;;;41.47;17.42;;;;;;;0.38;60.79;103170.41;4940234;28;20082;-46
2022/03/10 03:14:46;;;;;;;39.50;17.88;;;;;;;0.38;60.77;103170.41;4941012;28;20062;-47
2022/03/10 03:17:12;;;;;;;34.08;15.77;;;;;;;0.37;60.52;103170.53;4939256;28;20023;-48
2022/03/10 03:19:37;;;;;;;34.92;17.50;;;;;;;0.37;60.80;103170.53;4941578;28;20038;-47
2022/03/10 03:22:04;;;;;;;36.55;17.42;;;;;;;0.34;60.49;103174.22;4939517;28;20044;-46
2022/03/10 03:24:29;;;;;;;38.35;18.10;;;;;;;0.34;60.30;103173.41;4942339;28;20019;-46
2022/03/10 03:26:55;;;;;;;34.75;17.15;;;;;;;0.32;59.97;103176.16;4940906;28;20073;-48
2022/03/10 03:29:20;;;;;;;37.60;18.33;;;;;;;0.29;60.14;103179.88;4943370;28;20496;-48
2022/03/10 03:31:46;;;;;;;37.22;16.67;;;;;;;0.28;60.08;103178.22;4942156;28;20422;-46
2022/03/10 03:34:12;;;;;;;35.83;16.08;;;;;;;0.26;60.57;103177.50;4943025;28;20027;-49
2022/03/10 03:36:43;;;;;;;39.58;17.25;;;;;;;0.24;60.49;103181.22;4938549;28;20326;-46
2022/03/10 03:39:09;;;;;;;33.97;15.77;;;;;;;0.23;60.39;103180.38;4941639;28;20029;-47
2022/03/10 03:41:35;;;;;;;37.00;16.70;;;;;;;0.21;59.62;103182.28;4939055;28;20039;-47
2022/03/10 03:44:01;;;;;;;33.17;16.58;;;;;;;0.19;59.92;103181.59;4941451;28;20031;-46
2022/03/10 03:46:27;;;;;;;38.08;15.65;;;;;;;0.15;59.69;103174.84;4935124;28;20035;-46
2022/03/10 03:48:54;;;;;;;34.88;16.00;;;;;;;0.11;60.13;103180.50;4941878;28;20584;-46
2022/03/10 03:51:20;;;;;;;35.95;17.08;;;;;;;0.01;60.43;103179.53;4943628;28;20035;-47
2022/03/10 03:53:45;;;;;;;33.17;15.70;;;;;;;-0.03;60.28;103186.81;4945587;28;20824;-46
2022/03/10 03:56:11;;;;;;;34.95;17.13;;;;;;;-0.04;60.62;103171.97;4936303;28;20448;-45
2022/03/10 03:58:37;;;;;;;30.70;16.05;;;;;;;-0.02;60.76;103184.06;4942800;28;20028;-47
2022/03/10 04:01:02;;;;;;;33.83;15.57;;;;;;;-0.03;60.70;103187.66;4939502;28;20540;-46
2022/03/10 04:03:28;;;;;;;32.92;16.08;;;;;;;-0.04;60.34;103185.16;4938259;28;20119;-47
2022/03/10 04:05:53;;;;;;;32.08;15.90;;;;;;;-0.05;60.59;103183.47;4940149;28;20513;-47
2022/03/10 04:08:21;;;;;;;38.30;16.15;;;;;;;-0.06;60.36;103192.34;4939662;28;20030;-45
2022/03/10 04:10:47;;;;;;;36.03;16.40;;;;;;;-0.08;60.31;103184.56;4939511;28;20034;-46
2022/03/10 04:13:13;;;;;;;35.22;16.45;;;;;;;-0.09;60.00;103200.50;4940605;28;20081;-45
2022/03/10 04:15:38;;;;;;;34.90;16.25;;;;;;;-0.14;59.95;103195.56;4937562;28;20031;-45
2022/03/10 04:18:04;;;;;;;36.75;16.23;;;;;;;-0.17;60.76;103197.63;4940634;28;20366;-47
2022/03/10 04:20:30;;;;;;;35.85;15.90;;;;;;;-0.18;60.54;103204.69;4939323;28;20114;-46
2022/03/10 04:22:56;;;;;;;34.53;17.10;;;;;;;-0.19;60.43;103202.13;4940265;28;20039;-45
2022/03/10 04:25:22;;;;;;;32.42;15.45;;;;;;;-0.19;59.99;103195.06;4936147;28;20106;-46
2022/03/10 04:27:49;;;;;;;33.42;14.75;;;;;;;-0.21;60.38;103198.78;4938997;28;20034;-46
2022/03/10 04:30:15;;;;;;;30.50;14.95;;;;;;;-0.21;59.94;103198.78;4941393;28;20310;-46
2022/03/10 04:32:44;;;;;;;33.22;15.30;;;;;;;-0.21;60.24;103199.63;4941871;28;20054;-47
2022/03/10 04:35:12;;;;;;;32.70;15.13;;;;;;;-0.23;59.97;103198.91;4939419;28;20023;-46
2022/03/10 04:37:38;;;;;;;33.08;14.95;;;;;;;-0.24;60.05;103201.66;4940824;28;20493;-45
2022/03/10 04:40:07;;;;;;;30.23;14.38;;;;;;;-0.27;59.69;103201.91;4938011;28;20141;-46
2022/03/10 04:42:34;;;;;;;32.30;15.35;;;;;;;-0.27;60.46;103204.53;4935321;28;20039;-46
2022/03/10 04:45:00;;;;;;;34.45;16.00;;;;;;;-0.30;60.58;103210.88;4938419;28;20031;-46
2022/03/10 04:47:25;;;;;;;36.28;16.55;;;;;;;-0.34;60.07;103215.53;4938587;28;20413;-46
2022/03/10 04:49:51;;;;;;;32.42;14.55;;;;;;;-0.37;60.59;103214.91;4940758;28;20015;-45
2022/03/10 04:52:16;;;;;;;36.97;17.48;;;;;;;-0.39;60.12;103222.09;4941555;28;20235;-45
2022/03/10 04:54:42;;;;;;;38.97;17.02;;;;;;;-0.40;60.57;103215.16;4937691;28;20094;-45
2022/03/10 04:57:07;;;;;;;35.00;15.73;;;;;;;-0.42;60.22;103217.91;4941383;28;20027;-46
2022/03/10 04:59:33;;;;;;;38.75;17.40;;;;;;;-0.43;60.62;103221.50;4938168;28;20359;-46
2022/03/10 05:01:58;;;;;;;32.55;16.45;;;;;;;-0.43;60.90;103215.38;4936257;28;20774;-45
2022/03/10 05:04:24;;;;;;;34.35;17.08;;;;;;;-0.46;60.43;103219.09;4940860;28;20023;-47
2022/03/10 05:06:50;;;;;;;35.05;16.55;;;;;;;-0.48;61.17;103218.38;4932107;28;20126;-45
2022/03/10 05:09:16;;;;;;;40.90;18.90;;;;;;;-0.57;61.80;103213.78;4939166;28;20675;-46
2022/03/10 05:11:41;;;;;;;36.55;17.42;;;;;;;-0.65;61.43;103216.16;4938863;28;20031;-46
2022/03/10 05:14:07;;;;;;;40.15;17.23;;;;;;;-0.69;61.50;103222.63;4941347;28;20189;-46
2022/03/10 05:16:33;;;;;;;36.28;17.67;;;;;;;-0.69;61.69;103209.44;4940027;28;20042;-45
2022/03/10 05:18:59;;;;;;;36.50;16.67;;;;;;;-0.68;61.54;103217.22;4940531;28;20038;-45
2022/03/10 05:21:25;;;;;;;43.38;19.50;;;;;;;-0.65;61.66;103213.53;4941904;28;20046;-45
2022/03/10 05:23:52;;;;;;;39.80;17.10;;;;;;;-0.64;61.35;103221.31;4940995;28;20027;-45
2022/03/10 05:26:18;;;;;;;38.83;17.85;;;;;;;-0.64;61.63;103217.84;4943664;28;20027;-46
2022/03/10 05:28:44;;;;;;;38.08;18.85;;;;;;;-0.64;61.06;103218.69;4939913;28;20019;-47
2022/03/10 05:31:10;;;;;;;34.65;17.63;;;;;;;-0.64;61.23;103228.38;4941721;28;20143;-46
2022/03/10 05:33:35;;;;;;;38.15;18.05;;;;;;;-0.64;61.31;103229.22;4939659;28;20119;-46
2022/03/10 05:36:01;;;;;;;42.30;19.50;;;;;;;-0.66;61.34;103236.38;4939095;28;20489;-46
2022/03/10 05:38:26;;;;;;;35.47;18.17;;;;;;;-0.66;61.10;103235.53;4939006;28;20106;-46
2022/03/10 05:40:53;;;;;;;33.05;16.25;;;;;;;-0.67;61.50;103245.25;4937207;28;20131;-46
2022/03/10 05:43:18;;;;;;;41.58;17.88;;;;;;;-0.67;61.46;103249.66;4939249;28;20485;-46
2022/03/10 05:45:44;;;;;;;36.45;17.08;;;;;;;-0.67;61.14;103249.66;4938322;28;20034;-45
2022/03/10 05:48:09;;;;;;;31.00;15.57;;;;;;;-0.67;60.83;103257.56;4941614;28;20446;-47
2022/03/10 05:50:35;;;;;;;37.00;17.30;;;;;;;-0.69;61.14;103254.22;4941936;28;21431;-46
2022/03/10 05:53:03;;;;;;;33.25;15.35;;;;;;;-0.72;60.68;103255.28;4942328;28;20114;-45
2022/03/10 05:55:29;;;;;;;32.85;15.30;;;;;;;-0.72;61.37;103262.31;4940610;28;20386;-46
2022/03/10 05:57:55;;;;;;;41.17;17.40;;;;;;;-0.72;61.22;103271.06;4941870;28;20102;-46
2022/03/10 06:00:21;;;;;;;35.40;17.02;;;;;;;-0.70;61.12;103276.22;4936031;28;20110;-45
2022/03/10 06:02:47;;;;;;;41.42;17.40;;;;;;;-0.70;61.05;103268.31;4943177;28;20023;-45
2022/03/10 06:05:12;;;;;;;38.17;16.42;;;;;;;-0.70;61.40;103268.31;4942143;28;20378;-46
2022/03/10 06:07:39;;;;;;;36.13;16.77;;;;;;;-0.67;61.59;103262.81;4939020;28;20059;-46
2022/03/10 06:10:05;;;;;;;36.13;16.10;;;;;;;-0.65;61.73;103266.19;4938390;28;20039;-46
2022/03/10 06:12:31;;;;;;;40.20;18.42;;;;;;;-0.62;61.79;103272.06;4943965;28;20549;-45
2022/03/10 06:14:58;;;;;;;35.13;16.27;;;;;;;-0.59;61.41;103276.25;4944141;28;20022;-46
2022/03/10 06:17:24;;;;;;;40.90;17.10;;;;;;;-0.55;61.30;103279.50;4943435;28;20019;-46
2022/03/10 06:19:50;;;;;;;45.58;18.80;;;;;;;-0.53;61.67;103282.88;4944889;28;20070;-46
2022/03/10 06:22:21;;;;;;;42.83;18.67;;;;;;;-0.56;61.57;103278.66;4941834;28;20656;-45
2022/03/10 06:24:47;;;;;;;45.78;18.65;;;;;;;-0.50;62.02;103294.03;4942651;28;20477;-47
2022/03/10 06:27:14;;;;;;;42.70;19.02;;;;;;;-0.48;62.10;103292.13;4942987;28;20046;-46
2022/03/10 06:29:41;;;;;;;41.75;17.50;;;;;;;-0.42;62.11;103296.91;4944552;28;20027;-46
2022/03/10 06:32:06;;;;;;;41.60;18.45;;;;;;;-0.33;61.64;103292.78;4944271;28;20044;-46
2022/03/10 06:34:32;;;;;;;41.33;19.02;;;;;;;-0.26;61.85;103298.41;4942713;28;20554;-46
2022/03/10 06:36:58;;;;;;;44.55;18.40;;;;;;;-0.17;61.49;103300.38;4944600;28;20027;-46
2022/03/10 06:39:24;;;;;;;39.30;17.10;;;;;;;-0.14;62.15;103290.44;4942196;28;20028;-46
2022/03/10 06:41:49;;;;;;;37.42;17.23;;;;;;;-0.07;62.52;103293.44;4940843;28;20490;-46
2022/03/10 06:44:15;;;;;;;46.28;19.42;;;;;;;-0.01;62.32;103300.88;4942451;28;20032;-47
2022/03/10 06:46:41;;;;;;;39.10;17.73;;;;;;;0.05;62.33;103294.31;4942759;28;20119;-47
2022/03/10 06:49:06;;;;;;;39.85;17.05;;;;;;;0.12;62.32;103301.63;4943044;28;20146;-46
2022/03/10 06:51:32;;;;;;;35.22;16.95;;;;;;;0.20;63.08;103307.19;4942988;28;20028;-47
2022/03/10 06:53:58;;;;;;;33.88;17.27;;;;;;;0.26;63.32;103311.97;4944376;28;20082;-45
2022/03/10 06:56:24;;;;;;;35.45;18.13;;;;;;;0.34;64.00;103314.00;4942857;28;20031;-46
2022/03/10 06:58:49;;;;;;;33.50;16.83;;;;;;;0.39;64.00;103311.03;4944383;28;20022;-46
2022/03/10 07:01:15;;;;;;;38.42;17.42;;;;;;;0.44;64.92;103319.41;4942995;28;20082;-46
2022/03/10 07:03:40;;;;;;;43.20;18.83;;;;;;;0.48;66.61;103319.06;4943065;28;20070;-47
2022/03/10 07:06:06;;;;;;;37.38;17.75;;;;;;;0.54;66.74;103325.69;4943863;28;20031;-46
2022/03/10 07:08:31;;;;;;;37.35;17.77;;;;;;;0.61;67.78;103332.16;4936901;28;20034;-46
2022/03/10 07:10:57;;;;;;;40.22;18.42;;;;;;;0.68;68.46;103330.69;4940506;28;20062;-47
2022/03/10 07:13:23;;;;;;;43.85;18.70;;;;;;;0.73;69.46;103341.75;4940743;28;20043;-46
2022/03/10 07:15:48;;;;;;;42.80;20.45;;;;;;;0.80;69.56;103350.84;4939917;28;20027;-46
2022/03/10 07:18:14;;;;;;;46.03;20.40;;;;;;;0.88;69.73;103351.06;4937263;28;20063;-47
2022/03/10 07:20:39;;;;;;;38.55;19.10;;;;;;;0.95;70.96;103354.09;4938050;28;20035;-46
2022/03/10 07:23:05;;;;;;;47.72;20.95;;;;;;;1.01;71.47;103352.75;4936505;28;20027;-46
2022/03/10 07:25:31;;;;;;;47.92;20.17;;;;;;;1.07;71.38;103357.53;4941216;28;20509;-46
2022/03/10 07:27:56;;;;;;;52.80;22.15;;;;;;;1.12;72.04;103365.97;4942881;28;20058;-47
2022/03/10 07:30:22;;;;;;;61.55;23.70;;;;;;;1.16;72.09;103359.47;4941740;28;20433;-45
2022/03/10 07:32:47;;;;;;;54.53;21.92;;;;;;;1.23;72.57;103357.16;4936726;28;20035;-46
2022/03/10 07:35:13;;;;;;;51.95;23.35;;;;;;;1.27;73.41;103361.25;4938146;28;20035;-48
2022/03/10 07:37:39;;;;;;;57.28;23.80;;;;;;;1.35;72.92;103356.19;4940688;28;20027;-46
2022/03/10 07:40:05;;;;;;;55.20;23.85;;;;;;;1.39;73.28;103355.81;4937634;28;20230;-46
2022/03/10 07:42:31;;;;;;;47.38;22.77;;;;;;;1.43;73.15;103356.41;4936868;28;20027;-46
2022/03/10 07:44:57;;;;;;;52.05;23.48;;;;;;;1.47;74.00;103363.97;4947180;28;20517;-46
2022/03/10 07:47:22;;;;;;;48.20;22.55;;;;;;;1.52;74.21;103364.44;4939741;28;20039;-46
2022/03/10 07:49:48;;;;;;;48.10;22.80;;;;;;;1.57;74.03;103369.34;4948665;28;20023;-47
2022/03/10 07:52:13;;;;;;;49.45;22.15;;;;;;;1.62;74.70;103358.41;4945804;28;20416;-47
2022/03/10 07:54:39;;;;;;;56.03;22.67;;;;;;;1.68;74.80;103371.13;4946399;28;20036;-47
2022/03/10 07:57:04;;;;;;;56.40;22.73;;;;;;;1.75;74.51;103367.00;4948954;28;20034;-47
2022/03/10 07:59:30;;;;;;;48.33;22.00;;;;;;;1.87;74.70;103373.09;4948783;28;20272;-47
2022/03/10 08:01:55;;;;;;;52.35;21.85;;;;;;;2.00;74.57;103374.59;4947817;28;20210;-46
2022/03/10 08:04:21;;;;;;;44.33;20.70;;;;;;;2.13;74.87;103380.53;4942996;28;20054;-47
2022/03/10 08:06:47;;;;;;;45.00;22.00;;;;;;;2.25;74.53;103376.00;4952541;28;20019;-47
2022/03/10 08:09:12;;;;;;;46.95;21.23;;;;;;;2.39;74.20;103386.28;4948641;28;20035;-46
2022/03/10 08:11:39;;;;;;;48.33;20.42;;;;;;;2.55;74.27;103388.47;4939453;28;20197;-47
2022/03/10 08:14:05;;;;;;;45.58;19.13;;;;;;;2.70;73.77;103381.88;4937353;28;20028;-46
2022/03/10 08:16:34;;;;;;;46.28;19.73;;;;;;;2.83;74.20;103386.09;4940911;28;20109;-47
2022/03/10 08:19:00;;;;;;;40.85;19.35;;;;;;;2.97;73.95;103383.94;4933182;28;20027;-46
2022/03/10 08:21:26;;;;;;;43.05;20.00;;;;;;;3.11;73.73;103388.03;4933522;28;20073;-48
2022/03/10 08:23:53;;;;;;;47.20;19.65;;;;;;;3.24;73.21;103385.16;4935747;28;20114;-47
2022/03/10 08:26:19;;;;;;;47.60;20.10;;;;;;;3.38;73.24;103391.84;4937167;28;20123;-47
2022/03/10 08:28:50;;;;;;;41.00;18.70;;;;;;;3.53;73.44;103398.44;4935794;28;20783;-46
2022/03/10 08:31:17;;;;;;;44.35;19.13;;;;;;;3.66;73.37;103401.69;4934387;28;20407;-46
2022/03/10 08:33:43;;;;;;;34.00;17.38;;;;;;;3.73;73.24;103405.44;4936527;28;20046;-46
2022/03/10 08:36:08;;;;;;;34.78;17.73;;;;;;;3.81;73.02;103410.91;4939756;28;20031;-46
2022/03/10 08:38:35;;;;;;;37.17;17.90;;;;;;;3.89;72.96;103408.41;4940728;28;20501;-46
2022/03/10 08:41:01;;;;;;;37.15;16.70;;;;;;;3.99;72.28;103410.22;4940116;28;20121;-47
2022/03/10 08:43:29;;;;;;;33.85;16.10;;;;;;;4.07;72.07;103403.22;4940750;28;20031;-46
2022/03/10 08:45:56;;;;;;;36.38;17.98;;;;;;;4.19;72.15;103406.59;4940653;28;20042;-46
2022/03/10 08:48:22;;;;;;;35.33;17.52;;;;;;;4.27;71.90;103408.53;4938797;28;20378;-47
2022/03/10 08:50:47;;;;;;;31.70;17.08;;;;;;;4.36;71.64;103403.22;4940136;28;21027;-46
2022/03/10 08:53:13;;;;;;;30.58;17.23;;;;;;;4.45;71.77;103407.66;4944143;28;20031;-46
2022/03/10 08:55:38;;;;;;;31.35;16.23;;;;;;;4.52;71.14;103402.63;4940427;28;20533;-47
2022/03/10 08:58:04;;;;;;;33.42;16.42;;;;;;;4.59;71.02;103405.53;4940617;28;20039;-47
2022/03/10 09:00:30;;;;;;;37.97;18.00;;;;;;;4.64;70.74;103409.44;4939136;28;20250;-45
2022/03/10 09:02:57;;;;;;;36.55;17.20;;;;;;;4.71;70.54;103412.38;4938987;28;20027;-47
2022/03/10 09:05:22;;;;;;;31.25;17.17;;;;;;;4.81;70.33;103407.84;4940282;28;20027;-47
2022/03/10 09:07:48;;;;;;;30.45;15.95;;;;;;;4.89;70.09;103404.47;4940826;28;20027;-46
2022/03/10 09:10:14;;;;;;;33.72;17.02;;;;;;;4.96;69.95;103402.91;4941674;28;20030;-46
2022/03/10 09:12:40;;;;;;;30.77;15.60;;;;;;;5.04;69.74;103401.22;4952416;28;20030;-47
2022/03/10 09:15:07;;;;;;;39.70;17.25;;;;;;;5.22;69.45;103398.59;4953693;28;20392;-47
2022/03/10 09:17:32;;;;;;;28.85;14.88;;;;;;;5.41;69.42;103395.00;4950369;28;20042;-46
2022/03/10 09:19:57;;;;;;;34.47;15.60;;;;;;;5.55;68.94;103397.13;4950343;28;20271;-46
2022/03/10 09:22:25;;;;;;;29.92;16.13;;;;;;;5.70;68.20;103410.75;4940504;28;20050;-46
2022/03/10 09:24:53;;;;;;;35.70;15.75;;;;;;;5.83;67.85;103399.75;4947600;28;20030;-47
2022/03/10 09:27:39;;;;;;;28.67;14.10;;;;;;;5.91;67.09;103403.34;4949951;28;20033;-46
2022/03/10 09:30:10;;;;;;;30.75;14.68;;;;;;;6.10;67.05;103404.16;4947721;28;20035;-47
2022/03/10 09:32:37;;;;;;;30.48;14.00;;;;;;;6.22;66.73;103411.75;4952272;28;20170;-48
2022/03/10 09:35:05;;;;;;;28.13;14.38;;;;;;;6.35;66.08;103409.53;4950538;28;20034;-46
2022/03/10 09:37:31;;;;;;;26.25;14.70;;;;;;;6.46;65.80;103413.75;4952770;28;20033;-47
2022/03/10 09:39:56;;;;;;;26.35;13.75;;;;;;;6.54;65.38;103411.16;4951136;28;20061;-47
2022/03/10 09:42:30;;;;;;;26.77;13.57;;;;;;;6.54;64.53;103413.84;4949837;28;20038;-47
2022/03/10 09:45:00;;;;;;;26.55;13.93;;;;;;;6.56;64.67;103411.84;4941660;28;20026;-47
2022/03/10 09:47:27;;;;;;;27.30;13.10;;;;;;;6.62;64.49;103410.38;4953201;28;20042;-46
2022/03/10 09:49:53;;;;;;;27.30;13.50;;;;;;;6.66;64.13;103420.59;4950119;28;20369;-47
2022/03/10 09:52:22;;;;;;;24.02;13.23;;;;;;;6.76;63.89;103414.28;4951392;28;20147;-47
2022/03/10 09:54:48;;;;;;;26.77;13.32;;;;;;;6.89;63.61;103414.72;4946635;28;20556;-48
2022/03/10 09:57:16;;;;;;;24.80;12.27;;;;;;;6.97;63.20;103420.91;4949801;28;20069;-47
2022/03/10 09:59:58;;;;;;;26.58;14.63;;;;;;;7.00;62.95;103427.75;4959106;28;20894;-49
2022/03/10 10:02:24;;;;;;;27.23;13.93;;;;;;;7.06;62.73;103420.97;4953256;28;20077;-49
2022/03/10 10:04:51;;;;;;;23.98;13.00;;;;;;;7.09;62.47;103423.31;4954541;28;20490;-49
2022/03/10 10:07:21;;;;;;;27.00;13.23;;;;;;;7.10;62.58;103431.16;4951460;28;20182;-52
2022/03/10 10:09:54;;;;;;;27.48;14.20;;;;;;;7.13;62.12;103427.31;4959426;28;20038;-49
2022/03/10 10:12:24;;;;;;;23.77;13.60;;;;;;;7.18;62.33;103428.53;4955391;28;20394;-47
2022/03/10 10:14:50;;;;;;;22.00;12.35;;;;;;;7.22;62.16;103423.72;4951453;28;20091;-49
2022/03/10 10:17:24;;;;;;;26.38;13.65;;;;;;;7.24;61.91;103430.53;4949029;28;20026;-51
2022/03/10 10:19:54;;;;;;;26.98;14.60;;;;;;;7.23;61.63;103438.72;4959354;28;20034;-47
2022/03/10 10:22:20;;;;;;;26.65;14.23;;;;;;;7.23;61.71;103439.53;4942511;28;20137;-49
2022/03/10 10:24:57;;;;;;;26.20;13.73;;;;;;;7.23;61.60;103428.88;4956305;28;20192;-50
2022/03/10 10:27:32;;;;;;;27.67;14.25;;;;;;;7.28;61.23;103429.22;4944483;28;20039;-47
2022/03/10 10:30:00;;;;;;;24.65;14.02;;;;;;;7.34;60.90;103435.72;4951034;28;20513;-51
2022/03/10 10:32:31;;;;;;;26.23;13.98;;;;;;;7.41;61.07;103426.09;4949155;28;20115;-48
2022/03/10 10:35:08;;;;;;;24.90;14.15;;;;;;;7.38;60.66;103423.78;4955704;28;20034;-49
2022/03/10 10:37:36;;;;;;;25.65;13.15;;;;;;;7.47;60.40;103424.63;4949074;28;20031;-51
2022/03/10 10:40:03;;;;;;;26.85;14.00;;;;;;;7.53;60.65;103432.78;4954901;28;20035;-51
2022/03/10 10:42:30;;;;;;;29.15;14.95;;;;;;;7.60;60.00;103441.00;4944559;28;20540;-49
2022/03/10 10:44:59;;;;;;;22.55;12.93;;;;;;;7.67;59.78;103430.50;4955105;28;20106;-50
2022/03/10 10:47:27;;;;;;;25.70;13.77;;;;;;;7.72;59.71;103438.84;4945375;28;20685;-49
2022/03/10 10:49:57;;;;;;;27.45;13.73;;;;;;;7.78;59.65;103431.03;4957466;28;20097;-50
2022/03/10 10:52:24;;;;;;;26.85;14.02;;;;;;;7.87;59.72;103430.03;4938350;28;20046;-50
2022/03/10 10:55:03;;;;;;;24.35;12.93;;;;;;;7.90;58.84;103431.56;4942473;28;20081;-48
2022/03/10 10:57:34;;;;;;;22.88;12.45;;;;;;;7.97;58.32;103427.22;4938071;28;20110;-48
2022/03/10 11:00:12;;;;;;;24.02;12.52;;;;;;;8.08;58.04;103434.94;4933435;28;20613;-50
2022/03/10 11:02:42;;;;;;;26.27;12.48;;;;;;;8.19;57.65;103429.25;4950003;28;20243;-49
2022/03/10 11:05:14;;;;;;;21.83;12.20;;;;;;;8.31;57.12;103420.91;4948526;28;20034;-49
2022/03/10 11:07:41;;;;;;;18.08;11.23;;;;;;;8.43;57.16;103414.22;4951747;28;20028;-47
2022/03/10 11:10:09;;;;;;;18.77;11.40;;;;;;;8.58;56.56;103411.69;4948668;28;20031;-49
2022/03/10 11:12:39;;;;;;;19.48;11.32;;;;;;;8.73;56.73;103402.81;4948371;28;20035;-47
2022/03/10 11:15:07;;;;;;;21.23;11.85;;;;;;;8.92;56.31;103400.75;4948694;28;20023;-48
2022/03/10 11:17:34;;;;;;;23.10;12.02;;;;;;;9.09;55.38;103407.72;4949353;28;20458;-50